Time;durP1;ratioP1;P1;durP2;ratioP2;P2;SDS_P1;SDS_P2;PMS_P1;PMS_P2;Temp;Humidity;BMP_temperature;BMP_pressure;BME280_temperature;BME280_humidity;BME280_pressure;Samples;Min_cycle;Max_cycle;Signal;HPM_P1;HPM_P2
2021/11/06 00:00:22;;;;;;;34.67;31.42;;;5.40;99.90;;;;;;4955270;28;20048;-74
2021/11/06 00:02:49;;;;;;;34.00;30.60;;;5.50;99.90;;;;;;4971256;28;20031;-73
2021/11/06 00:05:15;;;;;;;31.15;28.20;;;5.40;99.90;;;;;;4963230;28;20046;-74
2021/11/06 00:07:42;;;;;;;31.52;28.42;;;5.50;99.90;;;;;;4953088;28;20055;-73
2021/11/06 00:10:10;;;;;;;30.40;27.25;;;5.50;99.90;;;;;;4954139;28;20036;-72
2021/11/06 00:12:38;;;;;;;28.00;25.50;;;5.40;99.90;;;;;;4954456;28;20071;-72
2021/11/06 00:15:06;;;;;;;35.70;31.90;;;5.30;99.90;;;;;;4954021;28;20031;-72
2021/11/06 00:17:34;;;;;;;31.00;27.80;;;5.30;99.90;;;;;;4953937;28;20045;-72
2021/11/06 00:20:01;;;;;;;30.13;27.17;;;5.30;99.90;;;;;;4953511;28;20034;-73
2021/11/06 00:22:27;;;;;;;29.23;26.15;;;5.20;99.90;;;;;;4954673;28;20046;-72
2021/11/06 00:24:54;;;;;;;32.60;25.73;;;5.10;99.90;;;;;;4953769;28;20035;-73
2021/11/06 00:27:20;;;;;;;28.40;25.60;;;5.10;99.90;;;;;;4954225;28;20392;-73
2021/11/06 00:29:46;;;;;;;30.70;27.50;;;5.20;99.90;;;;;;4953919;28;20038;-77
2021/11/06 00:32:12;;;;;;;29.17;26.55;;;5.20;99.90;;;;;;4953953;28;20027;-74
2021/11/06 00:34:38;;;;;;;34.47;31.17;;;5.20;99.90;;;;;;4954326;28;20036;-75
2021/11/06 00:37:05;;;;;;;38.83;34.08;;;5.30;99.90;;;;;;4968731;28;20034;-72
2021/11/06 00:39:31;;;;;;;36.33;32.47;;;5.30;99.90;;;;;;4954057;28;20027;-73
2021/11/06 00:41:57;;;;;;;32.30;28.80;;;5.30;99.90;;;;;;4953648;28;20039;-73
2021/11/06 00:44:24;;;;;;;32.80;29.55;;;5.30;99.90;;;;;;4953917;28;20035;-73
2021/11/06 00:46:50;;;;;;;33.15;29.85;;;5.40;99.90;;;;;;4959943;28;20051;-73
2021/11/06 00:49:16;;;;;;;37.15;33.13;;;5.50;99.90;;;;;;4955383;28;20035;-73
2021/11/06 00:51:43;;;;;;;31.38;28.50;;;5.40;99.90;;;;;;4954542;28;20038;-73
2021/11/06 00:54:09;;;;;;;33.35;29.85;;;5.40;99.90;;;;;;4958502;28;20054;-72
2021/11/06 00:56:35;;;;;;;31.98;28.95;;;5.40;99.90;;;;;;4960773;28;20031;-74
2021/11/06 00:59:02;;;;;;;33.40;29.90;;;5.40;99.90;;;;;;4953559;28;20042;-72
2021/11/06 01:01:28;;;;;;;32.28;29.33;;;5.40;99.90;;;;;;4953856;28;20031;-72
2021/11/06 01:03:56;;;;;;;33.42;30.42;;;5.40;99.90;;;;;;4967852;28;20043;-72
2021/11/06 01:06:23;;;;;;;33.95;30.40;;;5.40;99.90;;;;;;4953617;28;20047;-72
2021/11/06 01:08:49;;;;;;;34.15;30.83;;;5.50;99.90;;;;;;4954368;28;20043;-77
2021/11/06 01:11:15;;;;;;;35.22;31.55;;;5.50;99.90;;;;;;4957465;28;20027;-73
2021/11/06 01:13:43;;;;;;;34.15;30.67;;;5.50;99.90;;;;;;4957949;28;20036;-73
2021/11/06 01:16:10;;;;;;;31.10;28.23;;;5.50;99.90;;;;;;4955764;28;20031;-73
2021/11/06 01:18:37;;;;;;;35.55;32.20;;;5.40;99.90;;;;;;4957804;28;20035;-72
2021/11/06 01:21:03;;;;;;;37.03;29.35;;;5.40;99.90;;;;;;4957210;28;20023;-72
2021/11/06 01:23:30;;;;;;;30.00;26.85;;;5.40;99.90;;;;;;4957397;28;20030;-73
2021/11/06 01:25:56;;;;;;;31.85;28.40;;;5.30;99.90;;;;;;4956944;28;20038;-74
2021/11/06 01:28:22;;;;;;;31.52;28.27;;;5.30;99.90;;;;;;4957457;28;20031;-73
2021/11/06 01:30:49;;;;;;;32.13;29.30;;;5.30;99.90;;;;;;4956998;28;20031;-78
2021/11/06 01:33:15;;;;;;;33.03;30.05;;;5.30;99.90;;;;;;4957407;28;20031;-73
2021/11/06 01:35:41;;;;;;;30.73;27.73;;;5.40;99.90;;;;;;4960189;28;20381;-73
2021/11/06 01:38:08;;;;;;;32.38;29.25;;;5.30;99.90;;;;;;4965479;28;20050;-73
2021/11/06 01:40:34;;;;;;;30.85;28.00;;;5.40;99.90;;;;;;4957353;28;20027;-73
2021/11/06 01:43:00;;;;;;;33.10;29.83;;;5.40;99.90;;;;;;4955447;28;20031;-73
2021/11/06 01:45:27;;;;;;;32.90;29.80;;;5.50;99.90;;;;;;4957086;29;20469;-73
2021/11/06 01:47:54;;;;;;;32.10;29.00;;;5.50;99.90;;;;;;4956511;28;20434;-73
2021/11/06 01:50:22;;;;;;;31.92;28.73;;;5.50;99.90;;;;;;4957238;28;20046;-74
2021/11/06 01:52:48;;;;;;;32.53;29.20;;;5.40;99.90;;;;;;4956456;28;20046;-78
2021/11/06 01:55:15;;;;;;;31.30;28.10;;;5.50;99.90;;;;;;4957105;28;20036;-73
2021/11/06 01:57:42;;;;;;;32.25;28.23;;;5.40;99.90;;;;;;4956840;28;20039;-73
2021/11/06 02:00:22;;;;;;;30.50;27.38;;;5.40;99.90;;;;;;4956302;28;20108;-75
2021/11/06 02:02:48;;;;;;;29.85;26.98;;;5.40;99.90;;;;;;4962690;28;20049;-78
2021/11/06 02:05:15;;;;;;;29.42;26.85;;;5.40;99.90;;;;;;4966368;28;20035;-74
2021/11/06 02:07:42;;;;;;;31.85;28.75;;;5.50;99.90;;;;;;4956939;28;20062;-73
2021/11/06 02:10:10;;;;;;;32.13;28.92;;;5.50;99.90;;;;;;4956123;28;20030;-73
2021/11/06 02:12:38;;;;;;;31.27;28.65;;;5.50;99.90;;;;;;4956406;28;20062;-73
2021/11/06 02:15:08;;;;;;;30.75;27.85;;;5.50;99.90;;;;;;4955702;28;20027;-73
2021/11/06 02:17:34;;;;;;;29.60;26.70;;;5.50;99.90;;;;;;4959910;28;20057;-73
2021/11/06 02:20:01;;;;;;;30.60;27.73;;;5.50;99.90;;;;;;4961417;28;20043;-74
2021/11/06 02:22:30;;;;;;;34.08;27.65;;;5.50;99.90;;;;;;4956120;28;20043;-73
2021/11/06 02:24:58;;;;;;;30.65;27.35;;;5.50;99.90;;;;;;4956126;29;20066;-73
2021/11/06 02:27:24;;;;;;;31.98;27.70;;;5.40;99.90;;;;;;4955495;28;20050;-74
2021/11/06 02:29:51;;;;;;;32.00;28.65;;;5.40;99.90;;;;;;4974329;28;20510;-78
2021/11/06 02:32:17;;;;;;;31.23;28.38;;;5.40;99.90;;;;;;4956340;28;20035;-75
2021/11/06 02:34:44;;;;;;;28.65;25.67;;;5.50;99.90;;;;;;4956169;29;20042;-73
2021/11/06 02:37:10;;;;;;;30.83;27.77;;;5.50;99.90;;;;;;4953323;28;20035;-73
2021/11/06 02:39:36;;;;;;;31.52;28.35;;;5.40;99.90;;;;;;4965906;28;20043;-73
2021/11/06 02:42:09;;;;;;;33.60;30.13;;;5.50;99.90;;;;;;4955464;28;20056;-74
2021/11/06 02:44:35;;;;;;;34.83;31.10;;;5.50;99.90;;;;;;4956493;28;20046;-73
2021/11/06 02:47:02;;;;;;;36.00;32.45;;;5.50;99.90;;;;;;4953347;28;20058;-74
2021/11/06 02:49:29;;;;;;;34.65;30.20;;;5.50;99.90;;;;;;4955743;28;20035;-73
2021/11/06 02:51:55;;;;;;;33.60;30.52;;;5.50;99.90;;;;;;4954903;28;20039;-76
2021/11/06 02:54:22;;;;;;;34.55;31.23;;;5.50;99.90;;;;;;4964912;28;20046;-74
2021/11/06 02:56:48;;;;;;;34.85;31.20;;;5.50;99.90;;;;;;4955500;28;20050;-77
2021/11/06 02:59:14;;;;;;;36.20;31.60;;;5.50;99.90;;;;;;4955515;28;20034;-75
2021/11/06 03:01:41;;;;;;;37.33;33.72;;;5.50;99.90;;;;;;4956115;28;20042;-73
2021/11/06 03:04:12;;;;;;;38.28;34.28;;;5.50;99.90;;;;;;4955164;28;20035;-73
2021/11/06 03:06:39;;;;;;;39.60;35.72;;;5.40;99.90;;;;;;4956043;28;20108;-73
2021/11/06 03:09:07;;;;;;;45.65;36.58;;;5.40;99.90;;;;;;4955610;28;20031;-74
2021/11/06 03:11:34;;;;;;;37.25;33.58;;;5.50;99.90;;;;;;4955720;28;20036;-74
2021/11/06 03:14:05;;;;;;;35.60;32.20;;;5.50;99.90;;;;;;4955129;28;20910;-74
2021/11/06 03:16:32;;;;;;;35.35;32.45;;;5.40;99.90;;;;;;4955137;28;20031;-74
2021/11/06 03:18:58;;;;;;;32.30;29.20;;;5.50;99.90;;;;;;4954782;29;20038;-74
2021/11/06 03:21:27;;;;;;;33.58;30.38;;;5.40;99.90;;;;;;4954929;28;20038;-74
2021/11/06 03:23:54;;;;;;;33.75;30.52;;;5.40;99.90;;;;;;4954988;28;20039;-75
2021/11/06 03:26:20;;;;;;;35.00;31.33;;;5.30;99.90;;;;;;4955638;28;20046;-74
2021/11/06 03:28:47;;;;;;;33.40;30.17;;;5.30;99.90;;;;;;4955969;28;20038;-74
2021/11/06 03:31:13;;;;;;;35.97;31.90;;;5.30;99.90;;;;;;4954370;28;20046;-74
2021/11/06 03:33:40;;;;;;;35.72;32.00;;;5.30;99.90;;;;;;4955359;28;20051;-73
2021/11/06 03:36:06;;;;;;;36.15;32.55;;;5.30;99.90;;;;;;4954369;28;20054;-73
2021/11/06 03:38:32;;;;;;;37.00;32.10;;;5.20;99.90;;;;;;4954827;28;20043;-74
2021/11/06 03:40:58;;;;;;;35.38;31.85;;;5.10;99.90;;;;;;4953315;28;20040;-74
2021/11/06 03:43:24;;;;;;;38.97;33.40;;;5.10;99.90;;;;;;4954439;28;20046;-76
2021/11/06 03:45:50;;;;;;;36.65;33.25;;;5.10;99.90;;;;;;4954929;28;20050;-79
2021/11/06 03:48:17;;;;;;;36.00;32.42;;;5.10;99.90;;;;;;4954712;28;20392;-74
2021/11/06 03:50:43;;;;;;;36.97;33.15;;;5.00;99.90;;;;;;4954778;28;20031;-74
2021/11/06 03:53:09;;;;;;;36.08;32.47;;;4.90;99.90;;;;;;4953004;28;20112;-75
2021/11/06 03:55:35;;;;;;;37.45;33.55;;;4.90;99.90;;;;;;4954567;28;20042;-74
2021/11/06 03:58:02;;;;;;;36.92;33.17;;;4.90;99.90;;;;;;4954108;28;20038;-75
2021/11/06 04:00:29;;;;;;;37.08;33.17;;;4.80;99.90;;;;;;4954778;28;20376;-75
2021/11/06 04:02:55;;;;;;;35.05;31.45;;;4.80;99.90;;;;;;4968574;28;20050;-75
2021/11/06 04:05:21;;;;;;;35.55;32.42;;;4.80;99.90;;;;;;4954196;28;20039;-74
2021/11/06 04:07:47;;;;;;;36.65;32.95;;;4.70;99.90;;;;;;4959496;28;20038;-78
2021/11/06 04:10:14;;;;;;;34.33;30.95;;;4.70;99.90;;;;;;4961579;28;20035;-74
2021/11/06 04:12:40;;;;;;;37.67;34.25;;;4.60;99.90;;;;;;4974884;28;20058;-74
2021/11/06 04:15:10;;;;;;;37.90;34.38;;;4.70;99.90;;;;;;4957900;28;20042;-74
2021/11/06 04:17:37;;;;;;;41.50;37.17;;;4.60;99.90;;;;;;4954212;28;20062;-74
2021/11/06 04:20:05;;;;;;;42.42;36.65;;;4.50;99.90;;;;;;4953579;28;20042;-74
2021/11/06 04:22:32;;;;;;;38.20;34.38;;;4.50;99.90;;;;;;4965619;28;20054;-74
2021/11/06 04:24:58;;;;;;;41.70;37.67;;;4.50;99.90;;;;;;4972291;28;20045;-74
2021/11/06 04:27:24;;;;;;;37.85;34.22;;;4.40;99.90;;;;;;4953287;28;20066;-74
2021/11/06 04:29:51;;;;;;;43.17;37.65;;;4.40;99.90;;;;;;4953377;28;20039;-79
2021/11/06 04:32:17;;;;;;;43.65;37.00;;;4.40;99.90;;;;;;4952328;28;20039;-77
2021/11/06 04:34:43;;;;;;;41.53;36.83;;;4.40;99.90;;;;;;4954041;28;20042;-74
2021/11/06 04:37:09;;;;;;;42.97;38.70;;;4.40;99.90;;;;;;4952605;28;20039;-74
2021/11/06 04:39:35;;;;;;;38.03;34.63;;;4.40;99.90;;;;;;4954061;28;20460;-75
2021/11/06 04:42:02;;;;;;;39.25;35.05;;;4.40;99.90;;;;;;4953375;28;20034;-74
2021/11/06 04:44:28;;;;;;;41.13;37.10;;;4.40;99.90;;;;;;4953012;28;20027;-74
2021/11/06 04:46:55;;;;;;;51.05;36.47;;;4.30;99.90;;;;;;4962196;28;20038;-75
2021/11/06 04:49:21;;;;;;;39.45;35.45;;;4.40;99.90;;;;;;4956393;28;20397;-74
2021/11/06 04:51:47;;;;;;;41.55;37.38;;;4.30;99.90;;;;;;4954391;28;20046;-75
2021/11/06 04:54:14;;;;;;;40.40;36.10;;;4.40;99.90;;;;;;4953068;28;20042;-74
2021/11/06 04:56:40;;;;;;;41.13;37.10;;;4.40;99.90;;;;;;4953546;28;20027;-75
2021/11/06 04:59:06;;;;;;;41.58;37.38;;;4.50;99.90;;;;;;4953104;28;20043;-75
2021/11/06 05:01:32;;;;;;;40.53;36.35;;;4.40;99.90;;;;;;4954098;28;20023;-74
2021/11/06 05:03:59;;;;;;;38.30;34.35;;;4.50;99.90;;;;;;4952923;28;20031;-74
2021/11/06 05:06:26;;;;;;;38.08;34.35;;;4.40;99.90;;;;;;4953669;28;20143;-74
2021/11/06 05:08:53;;;;;;;34.53;31.20;;;4.40;99.90;;;;;;4968023;28;20047;-79
2021/11/06 05:11:19;;;;;;;50.95;33.72;;;4.40;99.90;;;;;;4963201;28;20476;-74
2021/11/06 05:13:45;;;;;;;36.10;32.30;;;4.40;99.90;;;;;;4953484;28;20054;-74
2021/11/06 05:16:11;;;;;;;36.25;32.58;;;4.30;99.90;;;;;;4951801;28;20046;-75
2021/11/06 05:18:38;;;;;;;34.45;30.83;;;4.30;99.90;;;;;;4954091;28;20050;-74
2021/11/06 05:21:04;;;;;;;36.55;32.85;;;4.30;99.90;;;;;;4962159;28;20033;-74
2021/11/06 05:23:30;;;;;;;36.65;30.15;;;4.30;99.90;;;;;;4970839;28;20038;-74
2021/11/06 05:25:56;;;;;;;36.85;33.47;;;4.30;99.90;;;;;;4962746;28;20042;-75
2021/11/06 05:28:22;;;;;;;36.25;32.50;;;4.20;99.90;;;;;;4953710;28;20039;-74
2021/11/06 05:30:49;;;;;;;36.67;33.05;;;4.30;99.90;;;;;;4953472;28;20038;-74
2021/11/06 05:33:15;;;;;;;35.15;31.63;;;4.20;99.90;;;;;;4951707;28;20035;-74
2021/11/06 05:35:41;;;;;;;36.97;33.20;;;4.20;99.90;;;;;;4965941;28;20031;-75
2021/11/06 05:38:08;;;;;;;34.47;31.27;;;4.20;99.90;;;;;;4952975;29;20496;-74
2021/11/06 05:40:35;;;;;;;38.83;32.60;;;4.10;99.90;;;;;;4967726;28;20453;-74
2021/11/06 05:43:01;;;;;;;38.00;32.42;;;4.10;99.90;;;;;;4953164;28;20048;-75
2021/11/06 05:45:27;;;;;;;35.38;31.58;;;4.10;99.90;;;;;;4953394;29;20477;-74
2021/11/06 05:47:54;;;;;;;34.50;31.00;;;4.10;99.90;;;;;;4967378;28;20055;-78
2021/11/06 05:50:20;;;;;;;34.70;30.95;;;4.10;99.90;;;;;;4953780;28;20380;-75
2021/11/06 05:52:46;;;;;;;32.35;29.33;;;4.10;99.90;;;;;;4953330;28;20042;-74
2021/11/06 05:55:14;;;;;;;33.47;30.17;;;4.00;99.90;;;;;;4954533;28;20035;-74
2021/11/06 05:57:42;;;;;;;30.92;27.63;;;4.00;99.90;;;;;;4957339;28;20046;-74
2021/11/06 06:00:15;;;;;;;30.52;27.30;;;4.00;99.90;;;;;;4956374;28;20043;-74
2021/11/06 06:02:42;;;;;;;29.77;26.60;;;3.90;99.90;;;;;;4957466;28;20035;-74
2021/11/06 06:05:09;;;;;;;29.23;26.02;;;3.80;99.90;;;;;;4956331;28;20408;-74
2021/11/06 06:07:36;;;;;;;29.02;25.83;;;3.80;99.90;;;;;;4956587;28;20050;-74
2021/11/06 06:10:05;;;;;;;29.15;26.30;;;3.80;99.90;;;;;;4955893;28;20125;-74
2021/11/06 06:12:31;;;;;;;32.30;28.70;;;3.80;99.90;;;;;;4956919;28;20051;-74
2021/11/06 06:14:57;;;;;;;34.25;27.40;;;3.80;99.90;;;;;;4954920;28;20477;-74
2021/11/06 06:17:23;;;;;;;28.20;25.60;;;3.80;99.90;;;;;;4956639;28;20485;-74
2021/11/06 06:19:50;;;;;;;31.52;28.17;;;3.80;99.90;;;;;;4956484;28;20058;-74
2021/11/06 06:22:17;;;;;;;28.92;25.90;;;3.70;99.90;;;;;;4960010;28;20445;-75
2021/11/06 06:24:43;;;;;;;32.10;27.80;;;3.70;99.90;;;;;;4971954;28;20050;-74
2021/11/06 06:27:09;;;;;;;29.45;26.33;;;3.60;99.90;;;;;;4955691;29;20046;-74
2021/11/06 06:29:36;;;;;;;30.75;26.95;;;3.60;99.90;;;;;;4956346;28;20402;-74
2021/11/06 06:32:02;;;;;;;31.33;26.35;;;3.70;99.90;;;;;;4955932;28;20039;-74
2021/11/06 06:34:28;;;;;;;34.55;27.73;;;3.70;99.90;;;;;;4955774;28;20043;-74
2021/11/06 06:36:55;;;;;;;30.98;26.83;;;3.70;99.90;;;;;;4955742;28;20401;-77
2021/11/06 06:39:21;;;;;;;38.88;29.15;;;3.70;99.90;;;;;;4956208;28;20042;-74
2021/11/06 06:41:47;;;;;;;31.63;27.88;;;3.90;99.90;;;;;;4956479;28;20454;-74
2021/11/06 06:44:13;;;;;;;43.70;29.35;;;3.90;99.90;;;;;;4955923;28;20034;-74
2021/11/06 06:46:40;;;;;;;41.33;28.83;;;4.00;99.90;;;;;;4954453;28;20047;-74
2021/11/06 06:49:06;;;;;;;44.92;30.88;;;4.10;99.90;;;;;;4965868;28;20031;-74
2021/11/06 06:51:32;;;;;;;35.60;28.77;;;4.10;99.90;;;;;;4968986;28;20035;-74
2021/11/06 06:53:58;;;;;;;39.25;30.75;;;4.10;99.90;;;;;;4954751;28;20036;-74
2021/11/06 06:56:24;;;;;;;34.20;29.48;;;4.20;99.90;;;;;;4973868;28;20043;-74
2021/11/06 06:58:51;;;;;;;33.90;29.35;;;4.20;99.90;;;;;;4963191;28;20149;-74
2021/11/06 07:01:17;;;;;;;45.60;29.90;;;4.30;99.90;;;;;;4955562;28;20027;-74
2021/11/06 07:03:43;;;;;;;48.85;29.75;;;4.30;99.90;;;;;;4955979;28;20055;-74
2021/11/06 07:06:09;;;;;;;42.17;31.42;;;4.30;99.90;;;;;;4958506;28;20026;-74
2021/11/06 07:08:35;;;;;;;36.47;32.53;;;4.30;99.90;;;;;;4973398;28;20488;-74
2021/11/06 07:11:02;;;;;;;35.65;31.30;;;4.40;99.90;;;;;;4967091;28;20039;-74
2021/11/06 07:13:31;;;;;;;43.55;31.15;;;4.50;99.90;;;;;;4954971;28;20055;-74
2021/11/06 07:15:57;;;;;;;44.60;30.92;;;4.50;99.90;;;;;;4954863;28;20066;-74
2021/11/06 07:18:23;;;;;;;37.55;31.08;;;4.60;99.90;;;;;;4965117;28;20050;-74
2021/11/06 07:20:50;;;;;;;38.60;30.95;;;4.60;99.90;;;;;;4969228;28;20045;-74
2021/11/06 07:23:16;;;;;;;44.83;33.35;;;4.70;99.90;;;;;;4958642;28;20066;-74
2021/11/06 07:25:42;;;;;;;43.00;33.95;;;4.80;99.90;;;;;;4955133;29;20457;-74
2021/11/06 07:28:08;;;;;;;39.83;30.42;;;4.90;99.90;;;;;;4954643;28;20046;-74
2021/11/06 07:30:35;;;;;;;46.05;34.75;;;5.00;99.90;;;;;;4955319;28;20491;-74
2021/11/06 07:33:01;;;;;;;37.95;32.55;;;5.10;99.90;;;;;;4954665;28;20050;-74
2021/11/06 07:35:27;;;;;;;44.03;31.58;;;5.10;99.90;;;;;;4955021;28;20396;-74
2021/11/06 07:37:53;;;;;;;35.95;30.58;;;5.10;99.90;;;;;;4955181;28;20500;-78
2021/11/06 07:40:21;;;;;;;30.98;27.67;;;5.10;99.90;;;;;;4955086;28;20491;-73
2021/11/06 07:42:48;;;;;;;44.75;33.03;;;5.10;99.90;;;;;;4953209;28;20051;-74
2021/11/06 07:45:17;;;;;;;38.60;27.50;;;5.20;99.90;;;;;;4954037;28;20070;-76
2021/11/06 07:47:43;;;;;;;30.90;27.70;;;5.30;99.90;;;;;;4954706;28;20043;-74
2021/11/06 07:50:10;;;;;;;30.13;26.98;;;5.30;99.90;;;;;;4953856;28;20047;-76
2021/11/06 07:52:36;;;;;;;32.13;28.50;;;5.30;99.90;;;;;;4955264;28;20039;-74
2021/11/06 07:55:05;;;;;;;31.05;27.88;;;5.40;99.90;;;;;;4954133;28;20031;-73
2021/11/06 07:57:32;;;;;;;35.45;29.85;;;5.40;99.90;;;;;;4954603;28;20031;-73
2021/11/06 07:59:59;;;;;;;31.30;25.75;;;5.50;99.90;;;;;;4954253;28;20035;-73
2021/11/06 08:02:26;;;;;;;32.25;27.52;;;5.60;99.90;;;;;;4954921;28;20035;-72
2021/11/06 08:04:52;;;;;;;27.33;24.67;;;5.70;99.90;;;;;;4963296;28;20472;-74
2021/11/06 08:07:18;;;;;;;28.27;23.55;;;5.50;99.90;;;;;;4970669;28;20038;-73
2021/11/06 08:09:44;;;;;;;27.98;24.70;;;5.50;99.90;;;;;;4954036;28;20031;-74
2021/11/06 08:12:11;;;;;;;26.58;23.75;;;5.50;99.90;;;;;;4954136;28;20404;-73
2021/11/06 08:14:37;;;;;;;26.95;24.13;;;5.60;99.90;;;;;;4954783;28;20039;-74
2021/11/06 08:17:03;;;;;;;26.77;22.35;;;5.60;99.90;;;;;;4953701;28;20385;-74
2021/11/06 08:19:30;;;;;;;24.92;22.40;;;5.60;99.90;;;;;;4954328;28;20035;-73
2021/11/06 08:21:56;;;;;;;25.70;23.10;;;5.60;99.90;;;;;;4954177;28;20453;-74
2021/11/06 08:24:23;;;;;;;24.98;22.20;;;5.70;99.90;;;;;;4952199;28;20050;-73
2021/11/06 08:26:50;;;;;;;25.63;23.10;;;5.80;99.90;;;;;;4953201;28;20129;-73
2021/11/06 08:29:16;;;;;;;26.52;21.20;;;5.80;99.90;;;;;;4957653;28;20046;-73
2021/11/06 08:31:44;;;;;;;23.88;20.17;;;5.80;99.90;;;;;;4961467;28;20062;-73
2021/11/06 08:34:10;;;;;;;21.42;19.27;;;5.80;99.90;;;;;;4953332;28;20047;-73
2021/11/06 08:36:37;;;;;;;20.40;18.17;;;5.80;99.90;;;;;;4954419;28;20465;-74
2021/11/06 08:39:05;;;;;;;20.05;18.13;;;5.80;99.90;;;;;;4953799;28;20488;-73
2021/11/06 08:41:31;;;;;;;20.98;18.88;;;5.90;99.90;;;;;;4953834;28;20086;-73
2021/11/06 08:43:57;;;;;;;19.20;17.38;;;5.90;99.90;;;;;;4953602;28;20048;-77
2021/11/06 08:46:23;;;;;;;19.73;17.73;;;5.90;99.90;;;;;;4954390;28;20035;-73
2021/11/06 08:48:50;;;;;;;20.73;18.40;;;5.90;99.90;;;;;;4954136;28;20047;-75
2021/11/06 08:51:16;;;;;;;24.92;18.35;;;5.80;99.90;;;;;;4965003;28;20561;-74
2021/11/06 08:53:45;;;;;;;23.80;21.25;;;5.80;99.90;;;;;;4954159;28;20035;-74
2021/11/06 08:56:11;;;;;;;23.42;20.08;;;5.90;99.90;;;;;;4963831;28;20031;-74
2021/11/06 08:58:37;;;;;;;22.60;20.17;;;6.00;99.90;;;;;;4959458;28;20058;-74
2021/11/06 09:01:04;;;;;;;31.00;27.67;;;6.10;99.90;;;;;;4952696;28;20062;-74
2021/11/06 09:03:30;;;;;;;29.98;27.00;;;6.20;99.90;;;;;;4972721;28;20042;-73
2021/11/06 09:05:56;;;;;;;26.95;24.08;;;6.20;99.90;;;;;;4955310;28;20030;-77
2021/11/06 09:08:30;;;;;;;36.13;32.40;;;6.20;99.90;;;;;;4970749;28;20048;-74
2021/11/06 09:11:02;;;;;;;21.13;18.38;;;6.30;99.90;;;;;;4951975;29;20054;-77
2021/11/06 09:13:29;;;;;;;21.17;19.00;;;6.10;99.90;;;;;;4964754;28;20059;-73
2021/11/06 09:15:56;;;;;;;21.02;18.70;;;6.20;99.90;;;;;;4965194;28;20043;-78
2021/11/06 09:18:22;;;;;;;22.38;20.20;;;6.10;99.90;;;;;;4953015;28;20035;-73
2021/11/06 09:20:48;;;;;;;21.02;18.73;;;6.00;99.90;;;;;;4961836;28;20027;-73
2021/11/06 09:23:15;;;;;;;20.27;18.40;;;6.10;99.90;;;;;;4957818;28;20047;-74
2021/11/06 09:25:41;;;;;;;23.67;18.55;;;6.10;99.90;;;;;;4953668;28;20035;-75
2021/11/06 09:28:08;;;;;;;21.52;19.55;;;6.10;99.90;;;;;;4952751;28;20032;-74
2021/11/06 09:30:34;;;;;;;23.58;20.77;;;6.10;99.90;;;;;;4955721;28;20393;-73
2021/11/06 09:33:00;;;;;;;29.55;22.58;;;6.30;99.90;;;;;;4956989;28;20042;-74
2021/11/06 09:35:27;;;;;;;26.45;21.15;;;6.40;99.90;;;;;;4957217;28;20469;-73
2021/11/06 09:37:53;;;;;;;28.80;20.55;;;6.50;99.90;;;;;;4956242;28;20349;-73
2021/11/06 09:40:19;;;;;;;26.23;22.48;;;6.40;99.90;;;;;;4963966;28;20040;-74
2021/11/06 09:42:46;;;;;;;24.58;22.10;;;6.40;99.90;;;;;;4957140;28;20031;-75
2021/11/06 09:45:14;;;;;;;25.70;23.15;;;6.50;99.90;;;;;;4967046;28;20499;-72
2021/11/06 09:47:43;;;;;;;23.23;20.30;;;6.50;99.90;;;;;;4960164;28;20028;-74
2021/11/06 09:50:15;;;;;;;23.20;20.80;;;6.40;99.90;;;;;;4964332;28;20531;-74
2021/11/06 09:52:41;;;;;;;33.00;22.23;;;6.50;99.90;;;;;;4956993;28;20131;-74
2021/11/06 09:55:09;;;;;;;25.27;21.23;;;6.50;99.90;;;;;;4955395;28;20032;-74
2021/11/06 09:57:36;;;;;;;26.02;20.35;;;6.60;99.90;;;;;;4956675;28;20056;-72
2021/11/06 10:00:08;;;;;;;23.67;21.10;;;6.70;99.90;;;;;;4956438;28;20059;-76
2021/11/06 10:02:38;;;;;;;25.13;21.80;;;6.60;99.90;;;;;;4963321;28;20374;-74
2021/11/06 10:05:06;;;;;;;22.17;19.95;;;6.80;99.90;;;;;;4970797;28;20054;-74
2021/11/06 10:07:32;;;;;;;22.15;19.38;;;6.80;99.90;;;;;;4956306;28;20028;-74
2021/11/06 10:10:04;;;;;;;21.85;19.75;;;6.80;99.90;;;;;;4971066;28;20058;-77
2021/11/06 10:12:50;;;;;;;18.40;16.67;;;6.90;99.90;;;;;;4956836;28;20070;-74
2021/11/06 10:15:18;;;;;;;21.77;19.77;;;7.00;99.90;;;;;;4970935;28;20205;-74
2021/11/06 10:17:45;;;;;;;22.95;20.58;;;7.10;99.90;;;;;;4976949;28;20499;-73
2021/11/06 10:20:29;;;;;;;20.73;18.60;;;7.00;99.90;;;;;;4971364;28;20023;-72
2021/11/06 10:23:01;;;;;;;19.77;17.80;;;7.00;99.90;;;;;;4954007;28;20050;-74
2021/11/06 10:25:28;;;;;;;22.35;20.02;;;7.20;99.90;;;;;;4959543;28;20477;-74
2021/11/06 10:28:06;;;;;;;19.48;17.42;;;7.20;99.90;;;;;;4973335;28;20038;-75
2021/11/06 10:30:36;;;;;;;20.58;18.35;;;7.00;99.90;;;;;;4973317;28;20034;-74
2021/11/06 10:33:14;;;;;;;27.58;18.02;;;7.00;99.90;;;;;;4972684;28;20031;-74
2021/11/06 10:35:41;;;;;;;21.13;18.40;;;7.20;99.90;;;;;;4959828;28;20046;-73
2021/11/06 10:38:21;;;;;;;21.38;19.23;;;7.00;99.90;;;;;;4955671;28;20487;-75
2021/11/06 10:41:02;;;;;;;26.02;20.55;;;7.00;99.90;;;;;;4954821;28;20035;-74
2021/11/06 10:43:35;;;;;;;20.38;18.27;;;7.10;99.90;;;;;;4956031;28;20035;-75
2021/11/06 10:46:04;;;;;;;30.80;20.75;;;7.20;99.90;;;;;;4970348;28;20062;-74
2021/11/06 10:48:35;;;;;;;20.98;18.73;;;7.20;99.90;;;;;;4956354;28;20378;-73
2021/11/06 10:51:06;;;;;;;24.60;21.58;;;7.30;99.90;;;;;;4967360;28;20103;-74
2021/11/06 10:53:45;;;;;;;27.25;21.27;;;7.40;99.90;;;;;;4955852;28;20039;-73
2021/11/06 10:56:14;;;;;;;23.88;21.38;;;7.70;99.90;;;;;;4954963;28;20028;-74
2021/11/06 10:58:42;;;;;;;27.83;20.90;;;7.90;99.90;;;;;;4970507;28;20049;-75
2021/11/06 11:01:14;;;;;;;25.17;22.63;;;7.80;99.90;;;;;;4970708;28;20053;-74
2021/11/06 11:03:42;;;;;;;24.88;21.33;;;7.70;99.90;;;;;;4972891;28;20035;-75
2021/11/06 11:06:11;;;;;;;24.90;22.08;;;7.60;99.90;;;;;;4967632;28;20034;-75
2021/11/06 11:08:43;;;;;;;27.63;23.35;;;7.60;99.90;;;;;;4973347;28;20035;-75
2021/11/06 11:11:09;;;;;;;26.23;23.27;;;7.60;99.90;;;;;;4971335;28;20472;-75
2021/11/06 11:13:45;;;;;;;29.15;26.13;;;7.60;99.90;;;;;;4964910;28;20469;-74
2021/11/06 11:16:14;;;;;;;32.33;24.55;;;7.70;99.90;;;;;;4969623;28;20050;-73
2021/11/06 11:18:40;;;;;;;26.77;22.15;;;7.90;99.90;;;;;;4955412;28;20046;-76
2021/11/06 11:21:08;;;;;;;27.48;24.23;;;8.10;99.90;;;;;;4955178;28;20039;-73
2021/11/06 11:23:35;;;;;;;35.33;26.95;;;8.20;99.90;;;;;;4954970;28;20035;-73
2021/11/06 11:26:01;;;;;;;32.85;26.50;;;8.20;99.90;;;;;;4954883;28;20536;-75
2021/11/06 11:28:27;;;;;;;34.38;25.60;;;8.10;99.90;;;;;;4955160;28;20039;-73
2021/11/06 11:30:54;;;;;;;30.42;27.52;;;8.10;99.90;;;;;;4954614;28;20051;-73
2021/11/06 11:33:21;;;;;;;32.88;29.55;;;8.20;99.90;;;;;;4954768;28;20487;-73
2021/11/06 11:35:50;;;;;;;29.92;26.80;;;8.10;99.90;;;;;;4954807;28;20032;-74
2021/11/06 11:38:18;;;;;;;30.15;27.30;;;7.90;99.90;;;;;;4954314;28;20030;-72
2021/11/06 11:41:09;;;;;;;33.25;29.73;;;7.90;99.90;;;;;;4955188;28;20046;-73
2021/11/06 11:44:06;;;;;;;28.35;25.67;;;7.80;99.90;;;;;;4955230;28;20046;-73
2021/11/06 11:46:46;;;;;;;28.58;25.63;;;8.10;99.90;;;;;;4954788;28;20042;-74
2021/11/06 11:49:14;;;;;;;30.95;27.75;;;8.20;99.90;;;;;;4966490;28;20046;-75
2021/11/06 11:51:40;;;;;;;29.83;26.95;;;8.30;99.90;;;;;;4968480;28;20504;-73
2021/11/06 11:54:08;;;;;;;27.73;24.88;;;8.20;99.90;;;;;;4953883;28;20042;-73
2021/11/06 11:56:37;;;;;;;33.78;26.42;;;8.10;99.90;;;;;;4953116;28;20035;-73
2021/11/06 11:59:05;;;;;;;46.65;33.88;;;8.10;99.90;;;;;;4954425;28;20039;-74
2021/11/06 12:01:33;;;;;;;28.23;25.63;;;8.40;99.90;;;;;;4954843;28;20031;-73
2021/11/06 12:04:16;;;;;;;40.78;28.17;;;8.40;99.90;;;;;;4954087;28;20058;-76
2021/11/06 12:06:44;;;;;;;34.72;27.77;;;8.40;99.90;;;;;;4954453;28;20031;-73
2021/11/06 12:09:10;;;;;;;27.58;24.65;;;8.50;99.90;;;;;;4954327;28;20381;-73
2021/11/06 12:11:51;;;;;;;29.58;26.73;;;8.50;99.90;;;;;;4954366;28;20488;-73
2021/11/06 12:14:23;;;;;;;31.85;26.50;;;8.50;99.90;;;;;;4954105;28;20035;-73
2021/11/06 12:16:58;;;;;;;28.98;26.02;;;8.40;99.90;;;;;;4954447;28;20488;-73
2021/11/06 12:19:38;;;;;;;30.05;26.90;;;8.10;99.90;;;;;;4954133;28;20049;-73
2021/11/06 12:22:09;;;;;;;31.50;27.48;;;8.20;99.90;;;;;;4952004;28;20481;-74
2021/11/06 12:24:37;;;;;;;29.70;26.70;;;8.20;99.90;;;;;;4971734;28;20034;-73
2021/11/06 12:27:06;;;;;;;32.28;29.17;;;8.30;99.90;;;;;;4976345;28;20038;-74
2021/11/06 12:29:39;;;;;;;29.95;26.45;;;8.00;99.90;;;;;;4981091;28;20392;-73
2021/11/06 12:32:15;;;;;;;33.38;26.35;;;8.00;99.90;;;;;;4955319;28;20032;-73
2021/11/06 12:34:46;;;;;;;30.77;27.35;;;8.00;99.90;;;;;;4962688;28;20492;-73
2021/11/06 12:37:35;;;;;;;34.03;27.95;;;8.20;99.90;;;;;;4968299;28;20061;-74